Terminal Aerodrome Forecast
Issued by NWS

Home | Current Version | Previous Version | Text Only | Print | Product List | Glossary On
Versions: 1 2 3 4 5 6 7 8 9 10 11 12 13
000
FTUS45 KABQ 040541
TAFFMN
TAF
KFMN 040541Z 0406/0506 10006KT P6SM BKN150
     FM041200 12006KT P6SM VCSH BKN070
     FM041800 20007KT P6SM VCTS BKN070CB
      TEMPO 0419/0422 VRB20G30KT -TSRA BKN060CB
     FM042200 18009KT P6SM VCSH BKN090=

USA.gov is the U.S. government's official web portal to all federal, state and local government web resources and services.